createdAt,value
2023-03-12T00:00:01.599Z,4.80
2023-03-12T00:00:43.756Z,3.40
2023-03-12T00:01:33.766Z,5.17
2023-03-12T00:02:15.415Z,4.30
2023-03-12T00:02:57.247Z,3.17
2023-03-12T00:03:40.338Z,3.47
2023-03-12T00:04:22.026Z,5.10
2023-03-12T00:05:04.195Z,3.60
2023-03-12T00:05:45.876Z,3.37
2023-03-12T00:06:27.734Z,4.23
2023-03-12T00:07:09.471Z,4.03
2023-03-12T00:07:51.704Z,3.67
2023-03-12T00:08:33.824Z,4.73
2023-03-12T00:09:15.412Z,3.43
2023-03-12T00:09:57.007Z,4.60
2023-03-12T00:10:40.200Z,3.93
2023-03-12T00:11:22.078Z,4.73
2023-03-12T00:12:04.117Z,4.07
2023-03-12T00:12:45.872Z,5.30
2023-03-12T00:13:27.460Z,5.33
2023-03-12T00:14:09.107Z,4.50
2023-03-12T00:14:51.166Z,8.73
2023-03-12T00:15:36.295Z,11.57
2023-03-12T00:16:18.728Z,21.90
2023-03-12T00:17:00.377Z,14.27
2023-03-12T00:17:41.970Z,17.63
2023-03-12T00:18:23.536Z,12.30
2023-03-12T00:19:05.124Z,14.57
2023-03-12T00:19:46.782Z,12.73
2023-03-12T00:20:28.537Z,8.70
2023-03-12T00:21:10.690Z,7.67
2023-03-12T00:21:52.286Z,6.07
2023-03-12T00:22:34.641Z,4.67
2023-03-12T00:23:16.295Z,5.40
2023-03-12T00:23:58.015Z,3.87
2023-03-12T00:24:39.649Z,6.67
2023-03-12T00:25:21.434Z,4.17
2023-03-12T00:26:06.335Z,3.07
2023-03-12T00:26:48.074Z,7.60
2023-03-12T00:27:29.739Z,4.37
2023-03-12T00:28:11.375Z,4.00
2023-03-12T00:28:53.653Z,3.63
2023-03-12T00:29:35.855Z,3.57
2023-03-12T00:30:17.544Z,3.40
2023-03-12T00:30:59.244Z,5.23
2023-03-12T00:31:40.980Z,3.30
2023-03-12T00:32:22.889Z,3.80
2023-03-12T00:33:04.549Z,5.00
2023-03-12T00:33:49.326Z,5.63
2023-03-12T00:34:31.009Z,8.47
2023-03-12T00:35:12.856Z,9.77
2023-03-12T00:35:56.382Z,10.33
2023-03-12T00:36:38.230Z,10.33
2023-03-12T00:37:20.277Z,10.47
2023-03-12T00:38:01.960Z,8.47
2023-03-12T00:38:43.952Z,5.07
2023-03-12T00:39:25.703Z,3.83
2023-03-12T00:40:09.590Z,7.17
2023-03-12T00:40:51.284Z,5.53
2023-03-12T00:41:33.087Z,4.17
2023-03-12T00:42:14.914Z,5.10
2023-03-12T00:42:56.549Z,3.63
2023-03-12T00:43:38.450Z,3.27
2023-03-12T00:44:20.159Z,3.03
2023-03-12T00:45:01.795Z,3.37
2023-03-12T00:45:43.454Z,3.37
2023-03-12T00:46:25.841Z,2.47
2023-03-12T00:47:07.565Z,2.90
2023-03-12T00:47:49.332Z,3.70
2023-03-12T00:48:31.471Z,4.23
2023-03-12T00:49:13.123Z,5.53
2023-03-12T00:49:54.923Z,4.07
2023-03-12T00:50:36.646Z,3.63
2023-03-12T00:51:18.690Z,3.37
2023-03-12T00:52:00.282Z,3.03
2023-03-12T00:52:42.072Z,2.83
2023-03-12T00:53:23.747Z,3.07
2023-03-12T00:54:05.837Z,3.40
2023-03-12T00:54:47.538Z,4.23
2023-03-12T00:55:29.559Z,2.90
2023-03-12T00:56:11.306Z,4.43
2023-03-12T00:56:52.999Z,4.80
2023-03-12T00:57:34.682Z,4.33
2023-03-12T00:58:16.373Z,3.67
2023-03-12T00:58:58.059Z,5.97
2023-03-12T00:59:40.474Z,3.03
2023-03-12T01:00:23.444Z,2.60
2023-03-12T01:01:05.898Z,2.70
2023-03-12T01:01:47.708Z,3.67
2023-03-12T01:02:29.305Z,3.53
2023-03-12T01:03:11.837Z,3.80
2023-03-12T01:03:54.698Z,4.03
2023-03-12T01:04:36.449Z,3.93
2023-03-12T01:05:18.542Z,3.83
2023-03-12T01:06:00.223Z,2.53
2023-03-12T01:06:41.913Z,3.03
2023-03-12T01:07:23.535Z,6.30
2023-03-12T01:08:05.325Z,5.17
2023-03-12T01:08:47.253Z,6.57
2023-03-12T01:09:29.132Z,6.93
2023-03-12T01:10:14.875Z,6.90
2023-03-12T01:10:56.728Z,6.63
2023-03-12T01:11:38.802Z,5.13
2023-03-12T01:12:20.829Z,4.87
2023-03-12T01:13:02.712Z,5.17
2023-03-12T01:13:44.616Z,5.23
2023-03-12T01:14:26.238Z,6.77
2023-03-12T01:15:08.274Z,3.90
2023-03-12T01:15:50.066Z,5.90
2023-03-12T01:16:32.475Z,4.33
2023-03-12T01:17:14.410Z,5.17
2023-03-12T01:17:56.030Z,4.10
2023-03-12T01:18:37.682Z,4.70
2023-03-12T01:19:19.323Z,3.67
2023-03-12T01:20:01.288Z,3.50
2023-03-12T01:20:43.055Z,4.43
2023-03-12T01:21:25.022Z,5.30
2023-03-12T01:22:06.774Z,3.93
2023-03-12T01:22:49.230Z,3.33
2023-03-12T01:23:31.156Z,4.80
2023-03-12T01:24:13.937Z,5.43
2023-03-12T01:24:55.530Z,4.30
2023-03-12T01:25:37.421Z,3.47
2023-03-12T01:26:19.148Z,5.60
2023-03-12T01:27:00.817Z,4.73
2023-03-12T01:27:42.487Z,5.20
2023-03-12T01:28:24.657Z,6.80
2023-03-12T01:29:06.476Z,4.63
2023-03-12T01:29:49.710Z,4.67
2023-03-12T01:30:31.692Z,4.70
2023-03-12T01:31:16.110Z,5.23
2023-03-12T01:31:57.842Z,3.97
2023-03-12T01:32:39.811Z,4.47
2023-03-12T01:33:22.815Z,4.00
2023-03-12T01:34:04.411Z,7.83
2023-03-12T01:34:46.024Z,4.90
2023-03-12T01:35:27.700Z,4.53
2023-03-12T01:36:23.606Z,4.07
2023-03-12T01:37:07.075Z,3.80
2023-03-12T01:37:48.721Z,4.30
2023-03-12T01:38:30.601Z,4.63
2023-03-12T01:39:12.202Z,4.40
2023-03-12T01:39:54.021Z,4.20
2023-03-12T01:40:36.250Z,4.53
2023-03-12T01:41:18.786Z,3.83
2023-03-12T01:42:00.930Z,3.80
2023-03-12T01:42:42.715Z,4.53
2023-03-12T01:43:30.986Z,3.97
2023-03-12T01:44:14.875Z,4.70
2023-03-12T01:44:59.281Z,4.63
2023-03-12T01:46:05.266Z,5.97
2023-03-12T01:46:47.953Z,5.47
2023-03-12T01:47:33.823Z,6.63
2023-03-12T01:48:20.642Z,4.77
2023-03-12T01:49:20.289Z,5.07
2023-03-12T01:50:03.340Z,6.33
2023-03-12T01:50:45.738Z,4.20
2023-03-12T01:51:33.268Z,5.63
2023-03-12T01:52:21.631Z,5.53
2023-03-12T01:53:06.825Z,7.40
2023-03-12T01:53:51.398Z,6.87
2023-03-12T01:54:37.356Z,7.07
2023-03-12T01:55:19.571Z,6.67
2023-03-12T01:56:03.469Z,7.50
2023-03-12T01:56:46.750Z,6.03
2023-03-12T01:57:55.652Z,9.13
2023-03-12T01:58:40.588Z,6.83
2023-03-12T01:59:35.350Z,6.83
2023-03-12T02:00:22.820Z,6.17
2023-03-12T02:01:06.986Z,5.53
2023-03-12T02:01:50.148Z,7.93
2023-03-12T02:02:32.517Z,7.17
2023-03-12T02:03:16.145Z,5.87
2023-03-12T02:04:00.733Z,4.40
2023-03-12T02:04:44.731Z,5.50
2023-03-12T02:05:43.429Z,4.40
2023-03-12T02:06:38.131Z,6.10
2023-03-12T02:07:19.871Z,5.90
2023-03-12T02:08:01.711Z,8.43
2023-03-12T02:08:46.306Z,6.07
2023-03-12T02:09:29.379Z,4.60
2023-03-12T02:10:11.465Z,5.13
2023-03-12T02:10:53.153Z,5.13
2023-03-12T02:11:35.239Z,3.60
2023-03-12T02:12:17.867Z,5.63
2023-03-12T02:12:59.614Z,5.13
2023-03-12T02:13:41.329Z,5.33
2023-03-12T02:14:23.077Z,6.60
2023-03-12T02:15:05.554Z,5.23
2023-03-12T02:15:47.899Z,4.87
2023-03-12T02:16:30.244Z,4.67
2023-03-12T02:17:12.297Z,4.93
2023-03-12T02:17:54.213Z,4.87
2023-03-12T02:18:37.411Z,8.70
2023-03-12T02:19:27.570Z,6.27
2023-03-12T02:20:10.894Z,5.37
2023-03-12T02:21:15.325Z,5.60
2023-03-12T02:21:58.150Z,4.57
2023-03-12T02:22:45.068Z,4.60
2023-03-12T02:23:41.405Z,4.67
2023-03-12T02:24:45.105Z,4.43
2023-03-12T02:25:26.752Z,4.97
2023-03-12T02:26:10.986Z,4.20
2023-03-12T02:26:53.329Z,5.60
2023-03-12T02:27:37.717Z,4.93
2023-03-12T02:28:23.559Z,4.93
2023-03-12T02:29:06.283Z,5.33
2023-03-12T02:29:48.663Z,4.70
2023-03-12T02:30:31.462Z,5.37
2023-03-12T02:31:16.551Z,4.40
2023-03-12T02:32:00.419Z,4.87
2023-03-12T02:32:43.745Z,4.00
2023-03-12T02:33:26.032Z,3.93
2023-03-12T02:34:08.537Z,3.70
2023-03-12T02:34:51.561Z,4.93
2023-03-12T02:35:33.943Z,6.60
2023-03-12T02:36:15.873Z,4.47
2023-03-12T02:36:57.605Z,4.37
2023-03-12T02:37:56.192Z,5.63
2023-03-12T02:38:40.133Z,4.30
2023-03-12T02:39:22.645Z,3.37
2023-03-12T02:40:18.051Z,4.63
2023-03-12T02:41:04.895Z,3.73
2023-03-12T02:41:53.452Z,5.40
2023-03-12T02:42:35.488Z,4.73
2023-03-12T02:43:21.828Z,4.80
2023-03-12T02:44:09.860Z,5.77
2023-03-12T02:44:52.037Z,4.30
2023-03-12T02:45:35.865Z,4.23
2023-03-12T02:46:17.871Z,3.93
2023-03-12T02:47:01.518Z,3.93
2023-03-12T02:47:43.194Z,4.10
2023-03-12T02:48:24.984Z,4.70
2023-03-12T02:49:08.840Z,3.07
2023-03-12T02:49:50.437Z,3.70
2023-03-12T02:50:32.152Z,4.43
2023-03-12T02:51:13.927Z,3.57
2023-03-12T02:51:56.331Z,3.50
2023-03-12T02:52:38.370Z,3.47
2023-03-12T02:53:20.053Z,3.90
2023-03-12T02:54:01.755Z,3.47
2023-03-12T02:54:43.413Z,4.43
2023-03-12T02:55:25.805Z,3.50
2023-03-12T02:56:07.671Z,3.47
2023-03-12T02:56:50.698Z,5.70
2023-03-12T02:57:32.969Z,5.40
2023-03-12T02:58:14.847Z,4.07
2023-03-12T02:58:56.685Z,5.10
2023-03-12T02:59:39.039Z,5.70
2023-03-12T03:00:22.539Z,4.80
2023-03-12T03:01:07.106Z,4.13
2023-03-12T03:01:52.925Z,5.30
2023-03-12T03:02:34.595Z,3.73
2023-03-12T03:03:16.275Z,4.43
2023-03-12T03:03:57.933Z,3.42
2023-03-12T03:04:39.728Z,4.17
2023-03-12T03:05:21.666Z,3.47
2023-03-12T03:06:03.894Z,3.28
2023-03-12T03:06:48.300Z,3.63
2023-03-12T03:07:29.966Z,4.37
2023-03-12T03:08:12.498Z,5.80
2023-03-12T03:08:54.329Z,4.53
2023-03-12T03:09:36.088Z,5.23
2023-03-12T03:10:18.161Z,3.53
2023-03-12T03:11:02.885Z,3.85
2023-03-12T03:11:44.783Z,4.70
2023-03-12T03:12:26.453Z,4.73
2023-03-12T03:13:08.060Z,5.43
2023-03-12T03:13:50.995Z,3.88
2023-03-12T03:14:32.770Z,3.93
2023-03-12T03:15:14.664Z,5.55
2023-03-12T03:15:58.185Z,5.75
2023-03-12T03:16:39.902Z,3.85
2023-03-12T03:17:23.317Z,3.53
2023-03-12T03:18:05.325Z,4.63
2023-03-12T03:18:47.183Z,3.88
2023-03-12T03:19:29.022Z,4.97
2023-03-12T03:20:11.951Z,3.40
2023-03-12T03:21:04.982Z,4.70
2023-03-12T03:21:48.098Z,5.93
2023-03-12T03:22:29.798Z,3.85
2023-03-12T03:23:11.563Z,5.65
2023-03-12T03:23:53.218Z,4.45
2023-03-12T03:24:36.118Z,3.67
2023-03-12T03:25:18.298Z,4.00
2023-03-12T03:26:00.862Z,4.75
2023-03-12T03:26:42.720Z,4.05
2023-03-12T03:27:24.522Z,4.57
2023-03-12T03:28:06.672Z,4.73
2023-03-12T03:28:48.427Z,4.47
2023-03-12T03:29:30.024Z,4.90
2023-03-12T03:30:12.211Z,3.87
2023-03-12T03:31:01.344Z,3.93
2023-03-12T03:31:46.196Z,5.60
2023-03-12T03:32:28.239Z,4.60
2023-03-12T03:33:09.943Z,3.65
2023-03-12T03:33:51.856Z,3.00
2023-03-12T03:34:33.699Z,3.72
2023-03-12T03:35:15.709Z,5.33
2023-03-12T03:35:59.669Z,3.80
2023-03-12T03:36:42.594Z,4.17
2023-03-12T03:37:28.077Z,3.70
2023-03-12T03:38:09.821Z,3.80
2023-03-12T03:38:51.599Z,4.35
2023-03-12T03:39:34.599Z,3.67
2023-03-12T03:40:16.585Z,5.10
2023-03-12T03:40:58.667Z,3.77
2023-03-12T03:41:40.397Z,4.18
2023-03-12T03:42:22.205Z,5.18
2023-03-12T03:43:03.850Z,9.57
2023-03-12T03:43:45.887Z,4.70
2023-03-12T03:44:28.734Z,5.88
2023-03-12T03:45:10.511Z,4.32
2023-03-12T03:46:03.076Z,3.60
2023-03-12T03:46:47.903Z,4.22
2023-03-12T03:47:29.655Z,4.30
2023-03-12T03:48:12.162Z,4.67
2023-03-12T03:48:53.818Z,3.43
2023-03-12T03:49:37.183Z,4.17
2023-03-12T03:50:19.186Z,4.93
2023-03-12T03:51:02.557Z,4.25
2023-03-12T03:51:46.764Z,4.22
2023-03-12T03:52:31.360Z,5.05
2023-03-12T03:53:13.186Z,4.10
2023-03-12T03:53:54.891Z,3.92
2023-03-12T03:54:37.377Z,4.43
2023-03-12T03:55:20.702Z,4.90
2023-03-12T03:56:10.321Z,4.40
2023-03-12T03:56:54.273Z,3.67
2023-03-12T03:57:36.162Z,4.60
2023-03-12T03:58:17.849Z,4.05
2023-03-12T03:58:59.584Z,4.68
2023-03-12T03:59:41.833Z,6.13
2023-03-12T04:00:23.735Z,4.87
2023-03-12T04:01:07.249Z,5.30
2023-03-12T04:01:49.005Z,5.03
2023-03-12T04:02:30.702Z,4.95
2023-03-12T04:03:13.969Z,6.07
2023-03-12T04:03:55.617Z,4.57
2023-03-12T04:04:37.755Z,4.97
2023-03-12T04:05:20.678Z,4.03
2023-03-12T04:06:05.865Z,4.15
2023-03-12T04:06:48.391Z,6.20
2023-03-12T04:07:31.208Z,7.47
2023-03-12T04:08:13.614Z,5.65
2023-03-12T04:08:56.803Z,5.78
2023-03-12T04:09:39.985Z,5.63
2023-03-12T04:10:24.106Z,5.25
2023-03-12T04:11:24.200Z,7.63
2023-03-12T04:12:06.173Z,6.47
2023-03-12T04:12:51.314Z,5.25
2023-03-12T04:13:32.931Z,6.43
2023-03-12T04:14:14.630Z,5.38
2023-03-12T04:14:59.604Z,7.10
2023-03-12T04:15:47.419Z,6.17
2023-03-12T04:16:29.209Z,5.43
2023-03-12T04:17:10.883Z,5.30
2023-03-12T04:17:52.657Z,5.05
2023-03-12T04:18:36.194Z,4.53
2023-03-12T04:19:18.235Z,5.60
2023-03-12T04:19:59.830Z,4.27
2023-03-12T04:20:41.897Z,5.65
2023-03-12T04:21:23.600Z,5.93
2023-03-12T04:22:06.189Z,5.93
2023-03-12T04:22:47.767Z,4.60
2023-03-12T04:23:29.983Z,5.43
2023-03-12T04:24:15.573Z,4.37
2023-03-12T04:24:57.730Z,4.33
2023-03-12T04:25:39.760Z,5.15
2023-03-12T04:26:21.603Z,4.80
2023-03-12T04:27:03.567Z,5.47
2023-03-12T04:27:45.684Z,5.18
2023-03-12T04:28:27.388Z,6.38
2023-03-12T04:29:09.352Z,5.65
2023-03-12T04:29:51.240Z,4.22
2023-03-12T04:30:33.089Z,5.60
2023-03-12T04:31:14.871Z,4.57
2023-03-12T04:32:02.888Z,5.03
2023-03-12T04:32:44.548Z,4.65
2023-03-12T04:33:27.663Z,4.78
2023-03-12T04:34:14.319Z,4.53
2023-03-12T04:34:56.806Z,6.40
2023-03-12T04:35:38.446Z,4.80
2023-03-12T04:36:20.109Z,4.82
2023-03-12T04:37:03.932Z,5.63
2023-03-12T04:37:46.150Z,6.05
2023-03-12T04:38:28.246Z,5.97
2023-03-12T04:39:10.677Z,6.40
2023-03-12T04:39:52.599Z,8.63
2023-03-12T04:40:34.266Z,12.00
2023-03-12T04:41:16.863Z,10.10
2023-03-12T04:42:10.396Z,7.60
2023-03-12T04:42:52.581Z,8.45
2023-03-12T04:43:34.983Z,6.95
2023-03-12T04:44:16.737Z,5.60
2023-03-12T04:44:59.210Z,5.43
2023-03-12T04:45:42.601Z,6.00
2023-03-12T04:46:24.246Z,5.80
2023-03-12T04:47:06.464Z,5.50
2023-03-12T04:47:48.498Z,5.73
2023-03-12T04:48:30.615Z,6.40
2023-03-12T04:49:12.314Z,7.45
2023-03-12T04:49:55.951Z,5.97
2023-03-12T04:50:39.039Z,6.77
2023-03-12T04:51:20.705Z,6.07
2023-03-12T04:52:02.391Z,5.40
2023-03-12T04:52:44.223Z,6.53
2023-03-12T04:53:26.369Z,6.60
2023-03-12T04:54:08.059Z,5.32
2023-03-12T04:54:51.066Z,5.70
2023-03-12T04:55:32.673Z,5.65
2023-03-12T04:56:14.310Z,6.22
2023-03-12T04:56:57.334Z,6.95
2023-03-12T04:57:38.898Z,5.50
2023-03-12T04:58:21.835Z,5.97
2023-03-12T04:59:05.536Z,5.95
2023-03-12T04:59:47.678Z,5.32
2023-03-12T05:00:29.405Z,7.20
2023-03-12T05:01:28.140Z,7.43
2023-03-12T05:02:09.777Z,5.55
2023-03-12T05:02:51.440Z,5.85
2023-03-12T05:03:33.294Z,5.85
2023-03-12T05:04:15.451Z,8.80
2023-03-12T05:04:58.090Z,7.82
2023-03-12T05:05:40.065Z,8.52
2023-03-12T05:06:23.886Z,9.38
2023-03-12T05:07:05.604Z,6.90
2023-03-12T05:07:47.267Z,7.03
2023-03-12T05:08:28.921Z,6.63
2023-03-12T05:09:10.581Z,8.85
2023-03-12T05:09:52.578Z,10.50
2023-03-12T05:10:34.357Z,7.47
2023-03-12T05:11:17.185Z,7.80
2023-03-12T05:11:58.960Z,7.97
2023-03-12T05:12:40.690Z,8.10
2023-03-12T05:13:23.007Z,8.10
2023-03-12T05:14:10.575Z,8.20
2023-03-12T05:14:52.503Z,8.50
2023-03-12T05:15:36.890Z,9.55
2023-03-12T05:16:18.949Z,8.07
2023-03-12T05:17:00.587Z,9.13
2023-03-12T05:17:42.225Z,8.43
2023-03-12T05:18:26.290Z,10.30
2023-03-12T05:19:09.772Z,9.45
2023-03-12T05:19:51.644Z,10.60
2023-03-12T05:20:34.165Z,10.13
2023-03-12T05:21:19.670Z,8.88
2023-03-12T05:22:02.461Z,7.22
2023-03-12T05:22:45.378Z,7.72
2023-03-12T05:23:27.416Z,8.45
2023-03-12T05:24:10.415Z,7.45
2023-03-12T05:24:52.304Z,8.52
2023-03-12T05:25:34.103Z,6.45
2023-03-12T05:26:22.050Z,6.80
2023-03-12T05:27:05.068Z,6.75
2023-03-12T05:27:46.770Z,7.50
2023-03-12T05:28:29.248Z,7.93
2023-03-12T05:29:13.726Z,7.63
2023-03-12T05:29:55.639Z,8.60
2023-03-12T05:30:39.596Z,7.88
2023-03-12T05:31:21.592Z,6.57
2023-03-12T05:32:04.972Z,8.60
2023-03-12T05:32:46.877Z,7.20
2023-03-12T05:33:29.075Z,7.05
2023-03-12T05:34:13.728Z,6.28
2023-03-12T05:34:57.738Z,7.63
2023-03-12T05:35:39.705Z,10.80
2023-03-12T05:36:21.774Z,8.95
2023-03-12T05:37:03.959Z,9.23
2023-03-12T05:37:46.505Z,7.05
2023-03-12T05:38:28.535Z,7.25
2023-03-12T05:39:10.218Z,8.85
2023-03-12T05:39:54.419Z,8.70
2023-03-12T05:40:36.254Z,8.27
2023-03-12T05:41:22.163Z,8.93
2023-03-12T05:42:05.147Z,8.82
2023-03-12T05:42:46.899Z,7.97
2023-03-12T05:43:29.387Z,7.38
2023-03-12T05:44:13.654Z,6.63
2023-03-12T05:44:56.395Z,6.90
2023-03-12T05:45:38.128Z,7.72
2023-03-12T05:46:20.873Z,7.43
2023-03-12T05:47:02.565Z,7.50
2023-03-12T05:47:44.221Z,6.32
2023-03-12T05:48:26.198Z,6.18
2023-03-12T05:49:08.642Z,8.30
2023-03-12T05:49:50.402Z,9.75
2023-03-12T05:50:31.986Z,6.63
2023-03-12T05:51:13.627Z,6.20
2023-03-12T05:51:55.212Z,6.93
2023-03-12T05:52:38.150Z,7.15
2023-03-12T05:53:19.889Z,7.90
2023-03-12T05:54:02.793Z,9.77
2023-03-12T05:54:44.463Z,8.32
2023-03-12T05:55:26.099Z,7.43
2023-03-12T05:56:12.376Z,8.73
2023-03-12T05:56:55.989Z,11.13
2023-03-12T05:57:39.016Z,12.10
2023-03-12T05:58:20.721Z,8.68
2023-03-12T05:59:03.563Z,10.55
2023-03-12T05:59:45.248Z,11.07
2023-03-12T06:00:27.114Z,10.95
2023-03-12T06:01:16.796Z,7.78
2023-03-12T06:01:59.212Z,12.05
2023-03-12T06:02:41.250Z,9.15
2023-03-12T06:03:24.394Z,7.65
2023-03-12T06:04:07.001Z,7.68
2023-03-12T06:04:48.716Z,7.75
2023-03-12T06:05:31.629Z,7.38
2023-03-12T06:06:13.743Z,7.90
2023-03-12T06:06:55.954Z,8.40
2023-03-12T06:07:38.216Z,9.43
2023-03-12T06:08:19.774Z,7.15
2023-03-12T06:09:02.080Z,7.15
2023-03-12T06:09:43.880Z,9.40
2023-03-12T06:10:27.570Z,11.05
2023-03-12T06:11:10.017Z,8.57
2023-03-12T06:11:51.694Z,12.35
2023-03-12T06:12:33.453Z,10.55
2023-03-12T06:13:15.584Z,8.55
2023-03-12T06:13:57.399Z,9.95
2023-03-12T06:14:39.895Z,9.13
2023-03-12T06:15:21.655Z,8.57
2023-03-12T06:16:05.478Z,8.65
2023-03-12T06:16:47.598Z,9.88
2023-03-12T06:17:30.236Z,8.45
2023-03-12T06:18:11.917Z,8.98
2023-03-12T06:18:55.277Z,8.95
2023-03-12T06:19:36.857Z,9.07
2023-03-12T06:20:18.696Z,7.93
2023-03-12T06:21:09.077Z,8.52
2023-03-12T06:21:50.925Z,8.27
2023-03-12T06:22:32.622Z,6.50
2023-03-12T06:23:15.181Z,7.20
2023-03-12T06:23:57.314Z,5.75
2023-03-12T06:24:48.868Z,8.85
2023-03-12T06:25:32.413Z,7.70
2023-03-12T06:26:15.534Z,6.72
2023-03-12T06:26:58.022Z,7.78
2023-03-12T06:27:40.975Z,7.15
2023-03-12T06:28:22.530Z,6.10
2023-03-12T06:29:04.298Z,7.75
2023-03-12T06:29:47.138Z,8.55
2023-03-12T06:30:28.781Z,5.95
2023-03-12T06:31:10.459Z,5.90
2023-03-12T06:31:52.364Z,5.78
2023-03-12T06:32:34.097Z,5.38
2023-03-12T06:33:15.781Z,5.22
2023-03-12T06:33:57.366Z,7.22
2023-03-12T06:34:38.925Z,7.57
2023-03-12T06:35:21.010Z,6.70
2023-03-12T06:36:05.404Z,5.97
2023-03-12T06:36:47.028Z,7.10
2023-03-12T06:37:28.735Z,7.75
2023-03-12T06:38:10.338Z,5.65
2023-03-12T06:38:52.095Z,7.18
2023-03-12T06:39:33.780Z,6.65
2023-03-12T06:40:15.475Z,9.00
2023-03-12T06:41:02.873Z,7.65
2023-03-12T06:41:44.762Z,6.53
2023-03-12T06:42:26.543Z,7.93
2023-03-12T06:43:12.161Z,8.05
2023-03-12T06:43:53.926Z,7.03
2023-03-12T06:44:35.507Z,7.90
2023-03-12T06:45:17.234Z,8.10
2023-03-12T06:46:00.333Z,8.63
2023-03-12T06:46:43.907Z,6.53
2023-03-12T06:47:25.556Z,6.18
2023-03-12T06:48:07.104Z,8.70
2023-03-12T06:48:49.055Z,5.70
2023-03-12T06:49:33.190Z,6.35
2023-03-12T06:50:14.900Z,5.90
2023-03-12T06:50:56.742Z,8.27
2023-03-12T06:51:38.369Z,6.18
2023-03-12T06:52:19.993Z,5.80
2023-03-12T06:53:01.614Z,7.05
2023-03-12T06:53:44.436Z,5.85
2023-03-12T06:54:26.141Z,5.72
2023-03-12T06:55:07.902Z,7.03
2023-03-12T06:55:50.703Z,5.75
2023-03-12T06:56:32.376Z,6.30
2023-03-12T06:57:16.483Z,5.85
2023-03-12T06:57:58.114Z,7.45
2023-03-12T06:58:40.138Z,8.40
2023-03-12T06:59:22.073Z,7.38
2023-03-12T07:00:05.422Z,7.78
2023-03-12T07:00:47.086Z,5.32
2023-03-12T07:01:28.893Z,4.97
2023-03-12T07:02:13.280Z,7.82
2023-03-12T07:02:54.842Z,5.82
2023-03-12T07:03:36.625Z,7.82
2023-03-12T07:04:18.261Z,5.65
2023-03-12T07:04:59.955Z,7.30
2023-03-12T07:05:45.736Z,8.68
2023-03-12T07:06:27.406Z,8.00
2023-03-12T07:07:11.463Z,5.57
2023-03-12T07:07:53.417Z,7.15
2023-03-12T07:08:35.014Z,6.63
2023-03-12T07:09:20.322Z,5.43
2023-03-12T07:10:02.056Z,5.07
2023-03-12T07:10:43.679Z,5.50
2023-03-12T07:11:26.510Z,5.30
2023-03-12T07:12:08.609Z,7.32
2023-03-12T07:12:50.722Z,6.43
2023-03-12T07:13:32.360Z,4.77
2023-03-12T07:14:14.009Z,5.35
2023-03-12T07:14:55.665Z,5.28
2023-03-12T07:15:37.510Z,6.07
2023-03-12T07:16:19.163Z,4.72
2023-03-12T07:17:02.290Z,6.40
2023-03-12T07:17:43.849Z,4.70
2023-03-12T07:18:25.668Z,6.55
2023-03-12T07:19:07.243Z,4.80
2023-03-12T07:19:49.845Z,7.05
2023-03-12T07:20:32.419Z,7.50
2023-03-12T07:21:16.601Z,8.05
2023-03-12T07:21:58.317Z,6.75
2023-03-12T07:22:40.232Z,7.55
2023-03-12T07:23:22.376Z,7.03
2023-03-12T07:24:07.033Z,8.25
2023-03-12T07:24:48.725Z,7.97
2023-03-12T07:25:30.525Z,7.93
2023-03-12T07:26:12.095Z,5.20
2023-03-12T07:26:53.692Z,5.65
2023-03-12T07:27:35.454Z,5.60
2023-03-12T07:28:17.988Z,5.93
2023-03-12T07:28:59.614Z,6.18
2023-03-12T07:29:41.292Z,6.78
2023-03-12T07:30:23.056Z,6.05
2023-03-12T07:31:05.467Z,7.25
2023-03-12T07:31:47.307Z,6.22
2023-03-12T07:32:29.092Z,7.45
2023-03-12T07:33:12.559Z,5.65
2023-03-12T07:33:54.277Z,5.05
2023-03-12T07:34:36.088Z,5.28
2023-03-12T07:35:17.905Z,6.20
2023-03-12T07:35:59.594Z,6.70
2023-03-12T07:36:41.427Z,12.95
2023-03-12T07:37:23.058Z,9.75
2023-03-12T07:38:05.971Z,12.75
2023-03-12T07:38:47.712Z,24.92
2023-03-12T07:39:29.350Z,12.45
2023-03-12T07:40:11.668Z,10.82
2023-03-12T07:40:55.737Z,10.68
2023-03-12T07:41:38.912Z,11.52
2023-03-12T07:42:20.696Z,10.55
2023-03-12T07:43:04.138Z,8.07
2023-03-12T07:43:47.482Z,7.85
2023-03-12T07:44:29.208Z,7.30
2023-03-12T07:45:11.031Z,6.85
2023-03-12T07:45:53.013Z,6.22
2023-03-12T07:46:34.675Z,7.45
2023-03-12T07:47:24.206Z,7.93
2023-03-12T07:48:07.053Z,7.15
2023-03-12T07:48:48.779Z,7.85
2023-03-12T07:49:30.467Z,7.45
2023-03-12T07:50:12.692Z,7.85
2023-03-12T07:50:54.353Z,7.55
2023-03-12T07:51:35.966Z,6.10
2023-03-12T07:52:19.995Z,6.18
2023-03-12T07:53:02.029Z,6.78
2023-03-12T07:53:43.632Z,6.50
2023-03-12T07:54:30.437Z,6.45
2023-03-12T07:55:13.040Z,6.38
2023-03-12T07:55:55.226Z,5.68
2023-03-12T07:56:37.098Z,6.15
2023-03-12T07:57:18.870Z,6.43
2023-03-12T07:58:01.412Z,6.78
2023-03-12T07:58:43.218Z,6.15
2023-03-12T07:59:26.821Z,5.93
2023-03-12T08:00:10.510Z,5.30
2023-03-12T08:00:56.270Z,5.57
2023-03-12T08:01:38.106Z,5.47
2023-03-12T08:02:20.647Z,6.32
2023-03-12T08:03:02.492Z,6.40
2023-03-12T08:03:44.475Z,7.85
2023-03-12T08:04:26.309Z,6.15
2023-03-12T08:05:08.368Z,5.45
2023-03-12T08:06:01.365Z,5.45
2023-03-12T08:06:43.165Z,6.55
2023-03-12T08:07:24.860Z,7.75
2023-03-12T08:08:06.893Z,9.10
2023-03-12T08:08:48.988Z,9.32
2023-03-12T08:09:30.703Z,11.23
2023-03-12T08:10:12.633Z,11.43
2023-03-12T08:10:54.810Z,8.20
2023-03-12T08:11:37.257Z,8.68
2023-03-12T08:12:18.862Z,8.05
2023-03-12T08:13:00.452Z,8.50
2023-03-12T08:13:42.115Z,8.13
2023-03-12T08:14:23.783Z,10.15
2023-03-12T08:15:06.719Z,9.82
2023-03-12T08:15:50.576Z,9.88
2023-03-12T08:16:32.237Z,10.10
2023-03-12T08:17:13.834Z,7.10
2023-03-12T08:17:55.515Z,7.80
2023-03-12T08:18:37.574Z,7.85
2023-03-12T08:19:19.280Z,10.02
2023-03-12T08:20:00.873Z,8.90
2023-03-12T08:20:42.479Z,9.80
2023-03-12T08:21:24.280Z,8.55
2023-03-12T08:22:06.616Z,10.48
2023-03-12T08:22:48.548Z,9.23
2023-03-12T08:23:30.700Z,9.40
2023-03-12T08:24:12.357Z,7.07
2023-03-12T08:24:53.987Z,7.88
2023-03-12T08:25:36.760Z,7.30
2023-03-12T08:26:18.393Z,8.98
2023-03-12T08:27:00.116Z,7.95
2023-03-12T08:27:41.827Z,8.75
2023-03-12T08:28:24.628Z,6.55
2023-03-12T08:29:06.364Z,6.65
2023-03-12T08:29:47.989Z,5.32
2023-03-12T08:30:30.930Z,5.97
2023-03-12T08:31:12.565Z,4.25
2023-03-12T08:32:04.663Z,4.32
2023-03-12T08:32:47.077Z,5.53
2023-03-12T08:33:28.694Z,5.57
2023-03-12T08:34:10.362Z,9.82
2023-03-12T08:34:52.146Z,7.82
2023-03-12T08:35:33.778Z,9.55
2023-03-12T08:36:15.517Z,7.18
2023-03-12T08:36:57.249Z,6.70
2023-03-12T08:37:38.894Z,5.15
2023-03-12T08:38:20.939Z,4.70
2023-03-12T08:39:03.193Z,5.55
2023-03-12T08:39:44.948Z,6.72
2023-03-12T08:40:26.653Z,6.88
2023-03-12T08:41:08.417Z,7.00
2023-03-12T08:41:51.651Z,6.03
2023-03-12T08:42:33.291Z,5.50
2023-03-12T08:43:14.959Z,8.30
2023-03-12T08:43:56.563Z,6.22
2023-03-12T08:44:38.161Z,6.25
2023-03-12T08:45:19.922Z,5.88
2023-03-12T08:46:02.672Z,6.90
2023-03-12T08:46:44.306Z,7.45
2023-03-12T08:47:25.960Z,6.70
2023-03-12T08:48:08.016Z,6.15
2023-03-12T08:48:49.696Z,5.40
2023-03-12T08:49:31.522Z,6.65
2023-03-12T08:50:16.382Z,7.10
2023-03-12T08:50:59.936Z,6.28
2023-03-12T08:51:41.681Z,6.32
2023-03-12T08:52:23.278Z,5.63
2023-03-12T08:53:04.962Z,5.90
2023-03-12T08:53:46.538Z,5.57
2023-03-12T08:54:28.159Z,6.53
2023-03-12T08:55:11.453Z,8.27
2023-03-12T08:55:54.355Z,5.72
2023-03-12T08:56:43.141Z,4.68
2023-03-12T08:57:24.761Z,5.82
2023-03-12T08:58:06.384Z,6.90
2023-03-12T08:58:48.019Z,5.68
2023-03-12T08:59:29.657Z,5.47
2023-03-12T09:00:15.025Z,5.63
2023-03-12T09:00:57.422Z,4.75
2023-03-12T09:01:41.766Z,4.88
2023-03-12T09:02:25.094Z,5.45
2023-03-12T09:03:06.857Z,5.45
2023-03-12T09:03:50.920Z,4.65
2023-03-12T09:04:32.587Z,5.00
2023-03-12T09:05:14.361Z,5.63
2023-03-12T09:06:05.427Z,6.72
2023-03-12T09:06:47.041Z,5.57
2023-03-12T09:07:30.318Z,5.80
2023-03-12T09:08:12.401Z,4.30
2023-03-12T09:08:54.007Z,4.53
2023-03-12T09:09:35.610Z,6.13
2023-03-12T09:10:17.763Z,5.05
2023-03-12T09:10:59.967Z,4.95
2023-03-12T09:11:42.433Z,6.35
2023-03-12T09:12:24.291Z,7.90
2023-03-12T09:13:06.137Z,7.18
2023-03-12T09:14:28.085Z,5.03
2023-03-12T09:15:02.914Z,6.30
2023-03-12T09:15:45.431Z,7.78
2023-03-12T09:16:27.992Z,6.03
2023-03-12T09:17:09.681Z,5.95
2023-03-12T09:17:51.469Z,4.90
2023-03-12T09:18:33.611Z,4.38
2023-03-12T09:19:16.248Z,6.13
2023-03-12T09:19:58.110Z,4.80
2023-03-12T09:20:42.776Z,6.15
2023-03-12T09:21:24.400Z,6.10
2023-03-12T09:22:06.164Z,6.55
2023-03-12T09:22:48.051Z,5.38
2023-03-12T09:23:30.183Z,5.50
2023-03-12T09:24:12.093Z,6.22
2023-03-12T09:24:54.846Z,7.70
2023-03-12T09:25:36.572Z,11.57
2023-03-12T09:26:18.290Z,8.80
2023-03-12T09:27:01.659Z,6.60
2023-03-12T09:27:46.642Z,8.43
2023-03-12T09:28:28.244Z,6.70
2023-03-12T09:29:09.861Z,6.78
2023-03-12T09:29:59.969Z,7.85
2023-03-12T09:30:42.711Z,13.32